Nearby METAR Reports

 

CYUL - Montreal/Dorval, Quebec, Canada
Distance from station: ENE 6km
Updated: 02/23/2019 13:00 EST
Partly cloudy
Partly cloudy
 Wind from S
Wind: S 6 km/h
Temperature: 0°C
Dew Point: -9°C
Humidity: 51%
Barometer: 1030.1 hPa
Clouds: Partly cloudy
Visibility: 48 km
Cloud details: Few Clouds 1219 m
Few Clouds 5182 m
Partly cloudy 7620 m
2019/02/23 18:00 CYUL 231800Z 17003KT 30SM FEW040 FEW170 SCT250 00/M09 A3042 RMK CF1AC1CI2 CF TR SLP307
CWVQ - Ste Anne De Bell, Quebec, Canada
Distance from station: WSW 10km
Updated: 02/23/2019 13:00 EST

 Wind from SSE
Wind: SSE 7 km/h
Temperature: 0°C
Wind Chill: -3°C
Dew Point: -10°C
Humidity: 47%
2019/02/23 18:00 CWVQ 231800Z AUTO 16004KT 00/M10 RMK AO1 SOG 46 8015 SLP306 T00001096
 
CWTA - Mc Tavish (aut), Quebec, Canada
Distance from station: ENE 18km
Updated: 02/23/2019 13:00 EST

 Wind from S
Wind: S 9 km/h
Temperature: -1°C
Wind Chill: -4°C
Dew Point: -11°C
Humidity: 47%
2019/02/23 18:00 CWTA 231800Z AUTO 18005KT M01/M11 RMK AO1 SOG 87 6015 SLP306 T10101111
CYMX - Montreal/Mirabel, Quebec, Canada
Distance from station: NW 29km
Updated: 02/23/2019 13:00 EST
Few Clouds
Few Clouds
 Wind from SSE
Wind: SSE 13 km/h
Temperature: 0°C
Wind Chill: -4°C
Dew Point: -9°C
Humidity: 51%
Barometer: 1029.5 hPa
Clouds: Few Clouds
Visibility: 72 km
Cloud details: Few Clouds 914 m
Few Clouds 7315 m
2019/02/23 18:00 CYMX 231800Z 15007KT 120V180 45SM FEW030 FEW240 M00/M09 A3040 RMK CU1CI2 CU TR SLP303
 
CYHU - Saint Hubert Arp, Quebec, Canada
Distance from station: ENE 31km
Updated: 02/23/2019 13:00 EST
Few Clouds
Few Clouds
 Wind from SSE
Wind: SSE 13 km/h
Temperature: -1°C
Wind Chill: -6°C
Dew Point: -9°C
Humidity: 55%
Barometer: 1030.5 hPa
Clouds: Few Clouds
Visibility: 14 km
Cloud details: Few Clouds 5791 m
2019/02/23 18:00 CYHU 231800Z AUTO 15007KT 9SM FEW190 M01/M09 A3043 RMK SLP307
CWIT - St Clothilde (a, Quebec, Canada
Distance from station: SSE 33km
Updated: 02/23/2019 13:00 EST

 Wind from ESE
Wind: ESE 7 km/h
Temperature: 0°C
Wind Chill: -3°C
Dew Point: -8°C
Humidity: 55%
2019/02/23 18:00 CWIT 231800Z AUTO 11004KT 00/M08 RMK AO1 SOG 44 7012 SLP301 T00001083
 
CWIZ - L'acadie, Quebec, Canada
Distance from station: ESE 41km
Updated: 02/23/2019 13:00 EST

 Wind from S
Wind: S 11 km/h
Temperature: -2°C
Wind Chill: -6°C
Dew Point: -8°C
Humidity: 64%
2019/02/23 18:00 CWIZ 231800Z AUTO 17006KT M02/M08 RMK AO1 SOG 43 T10201084 50002
CWHM - Varennes, Quebec, Canada
Distance from station: NE 45km
Updated: 10/25/2016 10:00 EDT
NOT Current

 Wind from W
Wind: W 19 km/h, Gust: 28 km/h
Temperature: 4°C
Wind Chill: 0°C
Dew Point: -2°C
Humidity: 65%
2016/10/25 14:00 CWHM 251400Z AUTO 28010G15KT 04/M02 RMK AO1 PK WND 28018/1302 T00391017
 
CWEW - L'assomption, Quebec, Canada
Distance from station: NE 50km
Updated: 02/23/2019 13:00 EST

 Wind from S
Wind: S 7 km/h
Temperature: 0°C
Wind Chill: -3°C
Dew Point: -10°C
Humidity: 47%
2019/02/23 18:00 CWEW 231800Z AUTO 17004KT M00/M10 RMK AO1 SOG 45 8021 SLP309 T10021099
CWBZ - St Anicet, Quebec, Canada
Distance from station: SW 52km
Updated: 02/23/2019 13:00 EST

 Wind from NW
Wind: NW 2 km/h
Temperature: 2°C
Dew Point: -10°C
Humidity: 41%
2019/02/23 18:00 CWBZ 231800Z AUTO 31001KT 02/M10 RMK AO1 SLP298 T00191096 58016
 
KFSO - Highgate, Vermont, USA
Distance from station: SE 79km
Updated: 02/23/2019 13:15 EST
Clear
Clear
 Wind from WNW
Wind: WNW 6 km/h
Temperature: 1°C
Dew Point: -9°C
Humidity: 48%
Barometer: 1030.5 hPa
Clouds: Clear
Visibility: 16 km
2019/02/23 18:15 KFSO 231815Z AUTO 30003KT 10SM CLR 01/M09 A3043 RMK AO2 T00101087
CMGB - Granby, Quebec, Canada
Distance from station: E 81km
Updated: 02/23/2019 13:15 EST

 Wind from WNW
Wind: WNW 6 km/h
Temperature: 0°C
Dew Point: -10°C
Humidity: 47%
2019/02/23 18:15 CMGB 231815Z AUTO 29003KT M00/M10 RMK AO1 SOG 42 6019 SLP306 T10041095
 
CWJT - St Jovite (autob, Quebec, Canada
Distance from station: NW 88km
Updated: 02/23/2019 13:00 EST

 Wind from SW
Wind: SW 4 km/h
Temperature: 1°C
Dew Point: -10°C
Humidity: 44%
2019/02/23 18:00 CWJT 231800Z AUTO 23002KT 01/M10 RMK AO1 0PAST HR 8025 SLP301 P0004 T00091096 50010
CWFQ - Frelighsburg, Quebec, Canada
Distance from station: ESE 90km
Updated: 02/23/2019 13:00 EST

 Wind from N
Wind: N 9 km/h
Temperature: -1°C
Wind Chill: -4°C
Dew Point: -11°C
Humidity: 47%
2019/02/23 18:00 CWFQ 231800Z AUTO 35005KT M01/M11 RMK AO1 SOG 32 6017 SLP299 T10141107
 
KPBG - Plattsburgh Afb, New York, USA
Distance from station: SSE 93km
Updated: 02/23/2019 12:53 EST
Clear
Clear
 Wind from SE
Wind: SE 17 km/h
Temperature: 0°C
Wind Chill: -4°C
Dew Point: -7°C
Humidity: 60%
Barometer: 1030.1 hPa
Clouds: Clear
Visibility: 16 km
2019/02/23 17:53 KPBG 231753Z AUTO 13009KT 10SM CLR 00/M07 A3042 RMK AO2 SLP306 T00001072 10000 21094 58016
KMSS - Massena, New York, USA
Distance from station: SW 100km
Updated: 02/23/2019 12:53 EST
Clear
Clear
 Wind from NNE
Wind: NNE 9 km/h
Temperature: 1°C
Wind Chill: -2°C
Dew Point: -7°C
Humidity: 56%
Barometer: 1029.8 hPa
Clouds: Clear
Visibility: 16 km
2019/02/23 17:53 KMSS 231753Z AUTO 02005KT 10SM CLR 01/M07 A3041 RMK AO2 SLP305 T00111072 10017 21089 58015
 
CWBS - Lac St Pierre (a, Quebec, Canada
Distance from station: NE 106km
Updated: 02/23/2019 13:00 EST

 Wind from S
Wind: S 6 km/h
Temperature: -2°C
Dew Point: -8°C
Humidity: 64%
2019/02/23 18:00 CWBS 231800Z AUTO 18003KT M02/M08 RMK AO1 T10171082
KBTV - Burlington, Vermont, USA
Distance from station: SSE 121km
Updated: 02/23/2019 12:54 EST
Mostly cloudy
Mostly cloudy
 Wind from calm
Wind: Calm
Temperature: 1°C
Dew Point: -8°C
Humidity: 51%
Barometer: 1030.1 hPa
Clouds: Mostly cloudy
Visibility: 16 km
Cloud details: Partly cloudy 3048 m
Partly cloudy 4572 m
Mostly cloudy 6096 m
2019/02/23 17:54 KBTV 231754Z 00000KT 10SM SCT100 SCT150 BKN200 01/M08 A3042 RMK AO2 SLP305 4/009 60000 T00061083 10011 21089 58016
 
KSLK - Saranac Lake, New York, USA
Distance from station: SSW 121km
Updated: 02/23/2019 12:51 EST
Overcast
Overcast
 Wind from calm
Wind: Calm
Temperature: 0°C
Dew Point: -7°C
Humidity: 60%
Barometer: 1026.1 hPa
Clouds: Overcast
Visibility: 16 km
Cloud details: Overcast 3353 m
2019/02/23 17:51 KSLK 231751Z AUTO 00000KT 10SM OVC110 00/M07 A3030 RMK AO2 SLP286 60000 T00001072 10000 21083 58010
CWNQ - Nicolet (autob), Quebec, Canada
Distance from station: NE 123km
Updated: 02/23/2019 13:00 EST

 Wind from SW
Wind: SW 6 km/h
Temperature: -2°C
Dew Point: -11°C
Humidity: 51%
2019/02/23 18:00 CWNQ 231800Z AUTO 22003KT M02/M11 RMK AO1 SLP297 T10211109 58023
 
KMWN - Mount Washington, New Hampshire, USA
Distance from station: SE 237km
Updated: 02/23/2019 12:54 EST

 Wind from W
Wind: W 56 km/h
Visibility: 160 km
2019/02/23 17:54 KMWN 231754Z 28030KT 100SM FEW/// FEW160 BKN180 M09/M13 RMK TPS LWR FEW040 4/015 11088 21133
CYVR - Vancouver Intl A, British Columbia, Canada
Distance from station: NW 3676km
Updated: 02/23/2019 13:20 EST
Light rain, Overcast
Light rain, Overcast
 Wind from E
Wind: E 17 km/h
Temperature: 2°C
Wind Chill: -2°C
Dew Point: 2°C
Humidity: 100%
Barometer: 1019.3 hPa
Summary: Light rain
Clouds: Overcast
Visibility: 13 km
Cloud details: Few Clouds 122 m
Few Clouds 244 m
Partly cloudy 335 m
Mostly cloudy 640 m
Overcast 792 m
2019/02/23 18:20 CYVR 231820Z 08009KT 8SM -RA FEW004 FEW008 SCT011 BKN021 OVC026 02/02 A3010 RMK SF1CF1SC2SC4SC1 SF TR SLP193